Terminal Aerodrome Forecast
Issued by NWS

Home | Current Version | Previous Version | Text Only | Print | Product List | Glossary On
Versions: 1 2 3 4 5 6 7 8 9 10 11 12 13 14 15 16 17 18 19 20 21 22 23 24
000
FTUS43 KGRB 311720
TAFAUW
TAF
KAUW 311720Z 3118/0118 22007KT P6SM BKN012
     FM312000 21009KT P6SM SCT020
     FM010100 VRB03KT P6SM SKC
     FM010400 VRB03KT 5SM BR SCT015
     FM010900 VRB02KT 4SM BR SCT005 BKN015
      TEMPO 0110/0114 1 1/2SM BR BKN005
     FM011400 22008KT P6SM FEW007 SCT015=

USA.gov is the U.S. government's official web portal to all federal, state and local government web resources and services.